createdAt,value
2022-08-28T00:01:58.674Z,2.72
2022-08-28T00:04:25.481Z,2.90
2022-08-28T00:06:52.334Z,3.35
2022-08-28T00:09:19.502Z,2.83
2022-08-28T00:11:46.266Z,2.70
2022-08-28T00:14:13.313Z,2.67
2022-08-28T00:16:40.353Z,2.83
2022-08-28T00:19:08.454Z,2.67
2022-08-28T00:21:35.218Z,2.83
2022-08-28T00:24:02.006Z,3.20
2022-08-28T00:26:28.842Z,3.22
2022-08-28T00:28:55.593Z,2.95
2022-08-28T00:31:22.387Z,3.75
2022-08-28T00:33:49.146Z,3.80
2022-08-28T00:36:17.250Z,3.03
2022-08-28T00:38:44.007Z,3.20
2022-08-28T00:41:10.753Z,3.30
2022-08-28T00:43:41.787Z,3.20
2022-08-28T00:46:11.489Z,3.03
2022-08-28T00:48:38.806Z,3.22
2022-08-28T00:51:06.483Z,2.60
2022-08-28T00:53:34.666Z,3.17
2022-08-28T00:56:10.235Z,3.58
2022-08-28T00:58:43.071Z,2.80
2022-08-28T01:01:10.342Z,2.80
2022-08-28T01:03:37.781Z,2.83
2022-08-28T01:06:05.443Z,2.95
2022-08-28T01:08:35.108Z,2.80
2022-08-28T01:11:04.301Z,3.38
2022-08-28T01:13:32.377Z,3.38
2022-08-28T01:15:59.855Z,3.45
2022-08-28T01:18:27.631Z,3.28
2022-08-28T01:20:59.414Z,3.33
2022-08-28T01:23:44.259Z,3.17
2022-08-28T01:26:11.779Z,3.28
2022-08-28T01:28:39.270Z,2.97
2022-08-28T01:31:08.746Z,3.30
2022-08-28T01:33:35.582Z,3.50
2022-08-28T01:36:02.972Z,3.35
2022-08-28T01:38:29.704Z,3.42
2022-08-28T01:40:57.798Z,4.10
2022-08-28T01:43:26.734Z,3.63
2022-08-28T01:45:58.427Z,3.70
2022-08-28T01:48:26.612Z,4.28
2022-08-28T01:50:53.953Z,3.97
2022-08-28T01:53:24.876Z,3.50
2022-08-28T01:55:53.809Z,4.20
2022-08-28T01:58:23.399Z,3.80
2022-08-28T02:00:50.978Z,3.95
2022-08-28T02:03:17.755Z,3.95
2022-08-28T02:05:44.779Z,3.90
2022-08-28T02:08:11.807Z,3.83
2022-08-28T02:10:41.951Z,4.75
2022-08-28T02:13:08.894Z,3.45
2022-08-28T02:15:38.032Z,4.20
2022-08-28T02:18:05.885Z,3.72
2022-08-28T02:20:33.793Z,3.95
2022-08-28T02:23:01.027Z,4.30
2022-08-28T02:25:28.823Z,4.40
2022-08-28T02:27:56.240Z,4.32
2022-08-28T02:30:23.187Z,4.28
2022-08-28T02:32:51.777Z,4.53
2022-08-28T02:35:19.927Z,4.35
2022-08-28T02:37:47.623Z,4.15
2022-08-28T02:40:16.996Z,4.30
2022-08-28T02:42:44.529Z,4.50
2022-08-28T02:45:13.028Z,3.75
2022-08-28T02:47:41.294Z,4.13
2022-08-28T02:50:11.703Z,4.20
2022-08-28T02:52:40.390Z,3.85
2022-08-28T02:55:09.137Z,4.55
2022-08-28T02:57:35.993Z,3.60
2022-08-28T03:00:03.854Z,4.47
2022-08-28T03:02:30.673Z,4.25
2022-08-28T03:04:57.700Z,4.82
2022-08-28T03:07:25.810Z,4.80
2022-08-28T03:09:52.603Z,4.82
2022-08-28T03:12:19.340Z,4.22
2022-08-28T03:14:46.127Z,4.53
2022-08-28T03:17:12.905Z,4.70
2022-08-28T03:19:39.626Z,4.50
2022-08-28T03:22:06.375Z,5.43
2022-08-28T03:24:34.550Z,4.45
2022-08-28T03:27:01.312Z,5.60
2022-08-28T03:29:28.101Z,4.68
2022-08-28T03:31:54.852Z,5.30
2022-08-28T03:34:21.642Z,4.85
2022-08-28T03:36:48.402Z,5.30
2022-08-28T03:39:15.276Z,5.55
2022-08-28T03:41:43.398Z,4.93
2022-08-28T03:44:10.286Z,5.13
2022-08-28T03:46:37.042Z,5.45
2022-08-28T03:49:05.018Z,5.15
2022-08-28T03:51:34.051Z,5.25
2022-08-28T03:54:02.145Z,4.93
2022-08-28T03:56:30.586Z,5.32
2022-08-28T03:59:01.469Z,4.57
2022-08-28T04:01:29.145Z,5.63
2022-08-28T04:03:56.065Z,5.32
2022-08-28T04:06:22.944Z,5.07
2022-08-28T04:08:49.748Z,4.93
2022-08-28T04:11:16.771Z,4.88
2022-08-28T04:13:43.913Z,4.47
2022-08-28T04:16:14.319Z,4.90
2022-08-28T04:18:42.600Z,4.78
2022-08-28T04:21:13.734Z,5.57
2022-08-28T04:23:42.579Z,5.18
2022-08-28T04:26:11.016Z,5.00
2022-08-28T04:28:38.053Z,4.53
2022-08-28T04:31:05.382Z,5.45
2022-08-28T04:33:33.547Z,4.88
2022-08-28T04:36:02.482Z,5.47
2022-08-28T04:38:29.239Z,5.25
2022-08-28T04:40:56.059Z,5.25
2022-08-28T04:43:25.691Z,5.55
2022-08-28T04:45:52.512Z,5.00
2022-08-28T04:48:19.372Z,4.90
2022-08-28T04:50:49.490Z,4.97
2022-08-28T04:53:19.719Z,5.05
2022-08-28T04:55:54.720Z,5.05
2022-08-28T04:58:23.962Z,5.85
2022-08-28T05:00:53.079Z,5.75
2022-08-28T05:03:20.021Z,4.18
2022-08-28T05:05:49.955Z,5.68
2022-08-28T05:08:18.833Z,4.68
2022-08-28T05:10:45.836Z,4.78
2022-08-28T05:13:14.640Z,4.55
2022-08-28T05:15:43.256Z,5.43
2022-08-28T05:18:10.751Z,4.30
2022-08-28T05:20:39.018Z,5.05
2022-08-28T05:23:07.787Z,5.60
2022-08-28T05:25:35.671Z,4.78
2022-08-28T05:28:03.302Z,4.82
2022-08-28T05:30:30.083Z,5.20
2022-08-28T05:32:56.816Z,5.22
2022-08-28T05:35:23.574Z,4.70
2022-08-28T05:37:50.512Z,5.35
2022-08-28T05:40:19.030Z,5.20
2022-08-28T05:42:45.854Z,5.05
2022-08-28T05:45:12.639Z,4.55
2022-08-28T05:47:39.461Z,4.55
2022-08-28T05:50:07.746Z,4.90
2022-08-28T05:52:34.882Z,5.03
2022-08-28T05:55:01.664Z,5.53
2022-08-28T05:57:30.661Z,4.85
2022-08-28T05:59:57.420Z,4.82
2022-08-28T06:02:24.232Z,5.35
2022-08-28T06:04:51.036Z,4.93
2022-08-28T06:07:17.771Z,5.05
2022-08-28T06:09:44.559Z,5.53
2022-08-28T06:12:11.851Z,5.22
2022-08-28T06:14:40.285Z,4.57
2022-08-28T06:17:07.779Z,4.60
2022-08-28T06:19:41.041Z,5.00
2022-08-28T06:22:09.029Z,5.35
2022-08-28T06:24:36.176Z,5.57
2022-08-28T06:27:02.982Z,5.00
2022-08-28T06:29:29.789Z,5.43
2022-08-28T06:32:00.403Z,4.97
2022-08-28T06:34:28.131Z,4.25
2022-08-28T06:36:55.154Z,5.35
2022-08-28T06:39:22.699Z,5.97
2022-08-28T06:41:49.484Z,5.15
2022-08-28T06:44:18.403Z,5.10
2022-08-28T06:46:46.883Z,5.25
2022-08-28T06:49:14.986Z,6.25
2022-08-28T06:51:41.711Z,5.47
2022-08-28T06:54:08.655Z,6.15
2022-08-28T06:56:35.625Z,5.40
2022-08-28T06:59:02.585Z,5.20
2022-08-28T07:01:32.197Z,5.95
2022-08-28T07:04:04.265Z,6.28
2022-08-28T07:06:34.413Z,5.70
2022-08-28T07:09:01.544Z,5.43
2022-08-28T07:11:30.256Z,6.45
2022-08-28T07:13:58.034Z,5.15
2022-08-28T07:16:27.577Z,5.70
2022-08-28T07:18:54.903Z,5.68
2022-08-28T07:21:22.069Z,5.22
2022-08-28T07:23:50.545Z,5.00
2022-08-28T07:26:20.241Z,4.97
2022-08-28T07:28:47.007Z,5.95
2022-08-28T07:31:16.573Z,5.28
2022-08-28T07:33:43.726Z,4.95
2022-08-28T07:36:28.874Z,5.88
2022-08-28T07:38:59.703Z,5.57
2022-08-28T07:41:28.550Z,5.72
2022-08-28T07:43:55.372Z,6.07
2022-08-28T07:46:22.186Z,5.68
2022-08-28T07:48:48.983Z,5.68
2022-08-28T07:51:15.942Z,6.05
2022-08-28T07:53:42.802Z,6.07
2022-08-28T07:56:10.938Z,5.85
2022-08-28T07:58:38.003Z,5.97
2022-08-28T08:01:05.011Z,5.70
2022-08-28T08:03:32.167Z,5.68
2022-08-28T08:06:01.274Z,5.43
2022-08-28T08:08:28.338Z,6.07
2022-08-28T08:10:59.895Z,5.35
2022-08-28T08:13:30.114Z,5.63
2022-08-28T08:16:01.559Z,5.47
2022-08-28T08:18:28.562Z,5.47
2022-08-28T08:20:55.289Z,5.68
2022-08-28T08:23:22.082Z,5.80
2022-08-28T08:25:56.263Z,5.47
2022-08-28T08:28:23.639Z,6.32
2022-08-28T08:31:03.216Z,5.70
2022-08-28T08:33:29.983Z,5.93
2022-08-28T08:35:56.706Z,5.35
2022-08-28T08:38:23.483Z,4.90
2022-08-28T08:40:50.787Z,6.07
2022-08-28T08:43:19.867Z,6.03
2022-08-28T08:45:47.790Z,5.82
2022-08-28T08:48:25.605Z,5.28
2022-08-28T08:50:53.727Z,5.43
2022-08-28T08:53:27.694Z,5.22
2022-08-28T08:55:55.980Z,5.10
2022-08-28T08:58:27.638Z,5.35
2022-08-28T09:01:01.452Z,6.80
2022-08-28T09:03:44.708Z,6.50
2022-08-28T09:06:19.659Z,6.70
2022-08-28T09:08:52.121Z,6.15
2022-08-28T09:11:31.287Z,6.65
2022-08-28T09:14:03.614Z,5.75
2022-08-28T09:16:38.300Z,5.70
2022-08-28T09:19:09.337Z,6.20
2022-08-28T09:21:40.659Z,6.28
2022-08-28T09:24:12.089Z,5.60
2022-08-28T09:26:39.632Z,5.85
2022-08-28T09:29:13.914Z,6.15
2022-08-28T09:31:41.043Z,5.35
2022-08-28T09:34:22.446Z,6.55
2022-08-28T09:36:49.489Z,5.50
2022-08-28T09:39:18.883Z,5.43
2022-08-28T09:42:11.710Z,6.50
2022-08-28T09:44:54.126Z,5.32
2022-08-28T09:47:35.063Z,5.47
2022-08-28T09:50:25.179Z,6.30
2022-08-28T09:52:53.743Z,4.72
2022-08-28T09:55:27.265Z,6.38
2022-08-28T09:57:54.242Z,4.88
2022-08-28T10:00:21.003Z,5.50
2022-08-28T10:02:56.004Z,5.53
2022-08-28T10:05:34.710Z,4.80
2022-08-28T10:08:11.063Z,4.70
2022-08-28T10:10:45.331Z,5.90
2022-08-28T10:13:18.903Z,4.85
2022-08-28T10:16:02.392Z,5.22
2022-08-28T10:18:42.520Z,5.37
2022-08-28T10:21:18.295Z,4.28
2022-08-28T10:24:24.771Z,5.28
2022-08-28T10:27:02.618Z,5.63
2022-08-28T10:29:38.738Z,5.63
2022-08-28T10:32:23.469Z,4.32
2022-08-28T10:35:01.581Z,5.03
2022-08-28T10:37:42.122Z,4.50
2022-08-28T10:40:14.320Z,5.93
2022-08-28T10:42:46.443Z,4.68
2022-08-28T10:45:16.736Z,4.20
2022-08-28T10:47:48.511Z,5.28
2022-08-28T10:50:21.949Z,5.28
2022-08-28T10:52:55.803Z,4.00
2022-08-28T10:55:25.574Z,4.63
2022-08-28T10:57:57.683Z,5.47
2022-08-28T11:00:26.705Z,3.75
2022-08-28T11:02:57.747Z,4.10
2022-08-28T11:05:28.237Z,4.88
2022-08-28T11:08:00.673Z,4.60
2022-08-28T11:10:49.334Z,5.57
2022-08-28T11:13:42.898Z,4.53
2022-08-28T11:16:19.113Z,4.40
2022-08-28T11:19:28.642Z,4.68
2022-08-28T11:22:00.184Z,4.82
2022-08-28T11:24:47.892Z,3.97
2022-08-28T11:27:24.334Z,4.28
2022-08-28T11:30:04.160Z,3.85
2022-08-28T11:32:46.910Z,4.32
2022-08-28T11:35:42.860Z,3.67
2022-08-28T11:38:10.342Z,4.20
2022-08-28T11:40:54.776Z,3.95
2022-08-28T11:43:34.735Z,4.15
2022-08-28T11:46:24.062Z,4.15
2022-08-28T11:48:52.343Z,3.47
2022-08-28T11:51:45.026Z,3.22
2022-08-28T11:54:28.819Z,3.42
2022-08-28T11:57:08.279Z,3.00
2022-08-28T12:00:01.722Z,3.58
2022-08-28T12:02:52.960Z,3.50
2022-08-28T12:05:54.141Z,3.30
2022-08-28T12:09:09.441Z,2.88
2022-08-28T12:14:58.671Z,2.95
2022-08-28T12:17:31.150Z,2.55
2022-08-28T12:20:06.181Z,2.92
2022-08-28T12:22:44.842Z,2.47
2022-08-28T12:25:22.323Z,2.40
2022-08-28T12:27:50.056Z,2.72
2022-08-28T12:30:30.326Z,3.03
2022-08-28T12:33:06.163Z,2.72
2022-08-28T12:35:33.058Z,3.00
2022-08-28T12:38:02.183Z,3.35
2022-08-28T12:40:33.041Z,2.63
2022-08-28T12:43:02.315Z,2.65
2022-08-28T12:45:35.567Z,3.08
2022-08-28T12:48:18.429Z,3.00
2022-08-28T12:50:45.369Z,3.60
2022-08-28T12:53:14.179Z,3.00
2022-08-28T12:55:41.317Z,2.75
2022-08-28T12:58:13.346Z,2.97
2022-08-28T13:00:52.809Z,3.05
2022-08-28T13:03:19.913Z,3.30
2022-08-28T13:05:55.264Z,3.63
2022-08-28T13:08:22.751Z,3.63
2022-08-28T13:10:51.429Z,3.60
2022-08-28T13:13:20.679Z,3.95
2022-08-28T13:15:52.879Z,3.20
2022-08-28T13:18:43.059Z,3.05
2022-08-28T13:21:33.624Z,3.13
2022-08-28T13:24:26.923Z,3.20
2022-08-28T13:27:07.607Z,4.07
2022-08-28T13:29:35.174Z,3.45
2022-08-28T13:32:06.321Z,3.13
2022-08-28T13:34:34.762Z,3.00
2022-08-28T13:37:05.832Z,3.85
2022-08-28T13:39:41.433Z,3.85
2022-08-28T13:42:11.284Z,3.17
2022-08-28T13:44:46.175Z,3.38
2022-08-28T13:47:15.066Z,2.50
2022-08-28T13:49:41.811Z,3.17
2022-08-28T13:52:09.572Z,3.13
2022-08-28T13:54:36.919Z,3.55
2022-08-28T13:57:05.916Z,5.07
2022-08-28T13:59:33.077Z,2.40
2022-08-28T14:02:01.811Z,3.35
2022-08-28T14:04:30.128Z,3.28
2022-08-28T14:06:56.878Z,3.15
2022-08-28T14:09:24.031Z,2.90
2022-08-28T14:11:52.390Z,2.55
2022-08-28T14:14:19.117Z,2.78
2022-08-28T14:16:46.070Z,2.60
2022-08-28T14:19:13.081Z,2.67
2022-08-28T14:21:41.693Z,3.08
2022-08-28T14:24:08.922Z,2.50
2022-08-28T14:26:35.946Z,2.50
2022-08-28T14:29:05.320Z,2.20
2022-08-28T14:31:32.806Z,2.85
2022-08-28T14:33:59.885Z,2.50
2022-08-28T14:36:29.101Z,2.00
2022-08-28T14:39:02.823Z,2.15
2022-08-28T14:41:32.524Z,2.92
2022-08-28T14:43:59.391Z,2.45
2022-08-28T14:46:28.493Z,2.72
2022-08-28T14:48:56.243Z,2.17
2022-08-28T14:51:23.274Z,2.42
2022-08-28T14:53:50.134Z,2.80
2022-08-28T14:56:18.287Z,2.42
2022-08-28T14:58:45.326Z,2.92
2022-08-28T15:01:21.153Z,2.25
2022-08-28T15:03:47.982Z,2.50
2022-08-28T15:06:14.722Z,2.50
2022-08-28T15:08:41.556Z,2.85
2022-08-28T15:11:08.913Z,2.45
2022-08-28T15:13:37.258Z,2.40
2022-08-28T15:16:06.343Z,2.80
2022-08-28T15:18:43.787Z,2.72
2022-08-28T15:21:15.836Z,2.83
2022-08-28T15:23:43.046Z,2.67
2022-08-28T15:26:15.170Z,2.30
2022-08-28T15:28:43.659Z,3.15
2022-08-28T15:31:10.590Z,2.55
2022-08-28T15:33:38.656Z,2.33
2022-08-28T15:36:07.472Z,2.20
2022-08-28T15:38:34.374Z,2.78
2022-08-28T15:41:01.142Z,2.45
2022-08-28T15:43:27.861Z,2.38
2022-08-28T15:45:56.036Z,2.03
2022-08-28T15:48:22.898Z,2.80
2022-08-28T15:50:49.636Z,3.15
2022-08-28T15:53:19.379Z,2.85
2022-08-28T15:55:46.150Z,2.80
2022-08-28T15:58:14.022Z,2.40
2022-08-28T16:00:41.524Z,2.60
2022-08-28T16:03:09.735Z,2.38
2022-08-28T16:05:40.602Z,2.20
2022-08-28T16:08:08.862Z,2.33
2022-08-28T16:10:35.699Z,2.08
2022-08-28T16:13:02.427Z,2.95
2022-08-28T16:15:29.146Z,2.15
2022-08-28T16:17:55.908Z,2.40
2022-08-28T16:20:24.202Z,2.50
2022-08-28T16:22:51.027Z,3.08
2022-08-28T16:25:18.019Z,2.60
2022-08-28T16:27:44.743Z,2.20
2022-08-28T16:30:15.818Z,2.53
2022-08-28T16:32:46.629Z,2.47
2022-08-28T16:35:14.263Z,2.40
2022-08-28T16:37:42.853Z,5.30
2022-08-28T16:40:11.118Z,2.10
2022-08-28T16:42:38.083Z,2.33
2022-08-28T16:45:06.000Z,2.15
2022-08-28T16:47:33.942Z,2.28
2022-08-28T16:50:02.644Z,2.42
2022-08-28T16:52:29.401Z,2.42
2022-08-28T16:54:57.484Z,2.17
2022-08-28T16:57:24.222Z,2.38
2022-08-28T16:59:53.564Z,2.35
2022-08-28T17:02:21.169Z,2.58
2022-08-28T17:04:48.012Z,2.53
2022-08-28T17:07:14.972Z,1.90
2022-08-28T17:09:41.730Z,2.45
2022-08-28T17:12:10.035Z,2.67
2022-08-28T17:14:38.355Z,2.33
2022-08-28T17:17:05.267Z,2.15
2022-08-28T17:19:32.922Z,1.83
2022-08-28T17:21:59.670Z,2.08
2022-08-28T17:24:26.682Z,2.58
2022-08-28T17:26:53.551Z,2.55
2022-08-28T17:29:21.675Z,2.33
2022-08-28T17:31:48.429Z,2.50
2022-08-28T17:34:15.185Z,2.25
2022-08-28T17:36:47.686Z,3.65
2022-08-28T17:39:15.887Z,2.70
2022-08-28T17:41:42.904Z,2.38
2022-08-28T17:44:10.655Z,2.42
2022-08-28T17:46:38.842Z,2.22
2022-08-28T17:49:07.007Z,2.00
2022-08-28T17:51:43.684Z,2.22
2022-08-28T17:54:12.599Z,2.20
2022-08-28T17:56:39.359Z,2.45
2022-08-28T17:59:06.094Z,2.90
2022-08-28T18:01:33.027Z,2.13
2022-08-28T18:04:01.408Z,2.28
2022-08-28T18:06:28.139Z,2.65
2022-08-28T18:08:54.894Z,2.55
2022-08-28T18:11:21.639Z,2.53
2022-08-28T18:13:48.423Z,2.15
2022-08-28T18:16:15.242Z,2.33
2022-08-28T18:18:42.207Z,2.25
2022-08-28T18:21:10.979Z,2.10
2022-08-28T18:23:38.256Z,2.75
2022-08-28T18:26:05.373Z,2.42
2022-08-28T18:28:32.624Z,2.50
2022-08-28T18:30:59.923Z,2.50
2022-08-28T18:33:26.779Z,2.90
2022-08-28T18:35:54.118Z,2.25
2022-08-28T18:38:23.962Z,2.72
2022-08-28T18:40:50.882Z,2.47
2022-08-28T18:43:17.621Z,2.42
2022-08-28T18:45:44.411Z,2.50
2022-08-28T18:48:11.217Z,2.67
2022-08-28T18:50:38.033Z,2.35
2022-08-28T18:53:05.403Z,2.55
2022-08-28T18:55:33.573Z,2.53
2022-08-28T18:58:01.487Z,2.20
2022-08-28T19:00:28.798Z,2.83
2022-08-28T19:02:55.720Z,3.10
2022-08-28T19:05:22.855Z,2.60
2022-08-28T19:07:50.176Z,3.08
2022-08-28T19:10:32.640Z,3.17
2022-08-28T19:13:04.271Z,3.17
2022-08-28T19:15:32.375Z,3.15
2022-08-28T19:17:59.544Z,2.70
2022-08-28T19:20:26.761Z,3.60
2022-08-28T19:22:53.614Z,2.60
2022-08-28T19:25:28.333Z,2.97
2022-08-28T19:27:58.827Z,2.67
2022-08-28T19:30:29.570Z,2.92
2022-08-28T19:32:56.363Z,2.72
2022-08-28T19:35:24.502Z,2.58
2022-08-28T19:37:52.303Z,2.60
2022-08-28T19:40:19.422Z,2.95
2022-08-28T19:42:46.359Z,2.83
2022-08-28T19:45:14.571Z,3.08
2022-08-28T19:47:42.753Z,2.55
2022-08-28T19:50:11.554Z,2.45
2022-08-28T19:52:38.788Z,2.50
2022-08-28T19:55:07.375Z,2.28
2022-08-28T19:57:34.655Z,2.50
2022-08-28T20:00:01.604Z,2.28
2022-08-28T20:02:28.512Z,2.47
2022-08-28T20:04:56.734Z,2.63
2022-08-28T20:07:23.615Z,2.58
2022-08-28T20:09:50.447Z,2.97
2022-08-28T20:12:17.179Z,2.33
2022-08-28T20:14:43.974Z,2.92
2022-08-28T20:17:11.363Z,3.10
2022-08-28T20:19:38.157Z,2.83
2022-08-28T20:22:06.282Z,2.60
2022-08-28T20:24:33.086Z,2.45
2022-08-28T20:26:59.866Z,2.55
2022-08-28T20:29:26.676Z,2.83
2022-08-28T20:31:53.509Z,2.67
2022-08-28T20:34:21.091Z,3.00
2022-08-28T20:36:48.024Z,2.85
2022-08-28T20:39:16.303Z,2.63
2022-08-28T20:41:43.970Z,2.53
2022-08-28T20:44:12.485Z,2.78
2022-08-28T20:46:41.683Z,2.83
2022-08-28T20:49:09.608Z,2.50
2022-08-28T20:51:36.334Z,2.80
2022-08-28T20:54:03.238Z,2.60
2022-08-28T20:56:31.282Z,2.80
2022-08-28T20:58:58.092Z,3.03
2022-08-28T21:01:24.965Z,2.53
2022-08-28T21:03:51.824Z,3.03
2022-08-28T21:06:18.628Z,3.00
2022-08-28T21:08:45.383Z,3.08
2022-08-28T21:11:12.143Z,3.92
2022-08-28T21:13:40.454Z,2.95
2022-08-28T21:16:07.424Z,2.97
2022-08-28T21:18:34.243Z,3.38
2022-08-28T21:21:03.814Z,2.97
2022-08-28T21:23:30.770Z,3.28
2022-08-28T21:25:57.556Z,3.08
2022-08-28T21:28:24.328Z,3.15
2022-08-28T21:30:52.468Z,3.25
2022-08-28T21:33:19.303Z,3.13
2022-08-28T21:35:46.262Z,3.58
2022-08-28T21:38:13.126Z,3.42
2022-08-28T21:40:40.199Z,3.30
2022-08-28T21:43:07.215Z,2.70
2022-08-28T21:45:33.991Z,3.15
2022-08-28T21:48:02.311Z,3.28
2022-08-28T21:50:29.054Z,3.03
2022-08-28T21:52:55.790Z,3.28
2022-08-28T21:55:22.864Z,4.03
2022-08-28T21:57:49.609Z,2.75
2022-08-28T22:00:19.373Z,3.72
2022-08-28T22:02:47.002Z,3.60
2022-08-28T22:05:15.632Z,3.42
2022-08-28T22:07:42.735Z,2.65
2022-08-28T22:10:10.467Z,3.40
2022-08-28T22:12:37.427Z,3.15
2022-08-28T22:15:05.553Z,3.00
2022-08-28T22:17:32.313Z,2.60
2022-08-28T22:19:59.068Z,2.90
2022-08-28T22:22:27.166Z,3.63
2022-08-28T22:24:53.984Z,2.78
2022-08-28T22:27:20.826Z,3.50
2022-08-28T22:29:47.595Z,2.92
2022-08-28T22:32:14.398Z,3.53
2022-08-28T22:34:43.199Z,2.60
2022-08-28T22:37:10.931Z,2.83
2022-08-28T22:39:39.372Z,3.20
2022-08-28T22:42:06.635Z,3.47
2022-08-28T22:44:33.784Z,2.53
2022-08-28T22:47:00.539Z,3.05
2022-08-28T22:49:27.329Z,2.55
2022-08-28T22:51:54.109Z,3.35
2022-08-28T22:54:20.875Z,2.75
2022-08-28T22:56:48.970Z,2.85
2022-08-28T22:59:15.818Z,2.80
2022-08-28T23:01:42.654Z,2.83
2022-08-28T23:04:10.140Z,2.88
2022-08-28T23:06:37.052Z,3.50
2022-08-28T23:09:03.907Z,2.90
2022-08-28T23:11:30.678Z,3.17
2022-08-28T23:13:58.779Z,3.15
2022-08-28T23:16:25.584Z,3.03
2022-08-28T23:19:08.859Z,3.40
2022-08-28T23:21:40.791Z,3.42
2022-08-28T23:24:11.449Z,2.97
2022-08-28T23:26:38.206Z,3.40
2022-08-28T23:29:06.265Z,2.88
2022-08-28T23:31:33.124Z,3.15
2022-08-28T23:33:59.934Z,3.17
2022-08-28T23:36:26.711Z,2.88
2022-08-28T23:38:53.474Z,2.72
2022-08-28T23:41:20.228Z,2.95
2022-08-28T23:43:47.055Z,3.13
2022-08-28T23:46:17.032Z,3.50
2022-08-28T23:48:45.153Z,3.45
2022-08-28T23:51:13.836Z,3.13
2022-08-28T23:53:42.262Z,3.17
2022-08-28T23:56:09.651Z,2.88
2022-08-28T23:58:36.520Z,3.80
